createdAt,value
2022-08-28T00:02:52.725Z,94859.78
2022-08-28T00:06:01.855Z,94862.91
2022-08-28T00:09:12.241Z,94855.31
2022-08-28T00:12:21.878Z,94859.13
2022-08-28T00:15:35.186Z,94853.00
2022-08-28T00:18:43.344Z,94855.66
2022-08-28T00:21:55.611Z,94851.41
2022-08-28T00:25:06.594Z,94850.56
2022-08-28T00:28:24.118Z,94847.94
2022-08-28T00:31:33.944Z,94852.16
2022-08-28T00:34:42.594Z,94848.78
2022-08-28T00:37:51.880Z,94848.41
2022-08-28T00:41:04.835Z,94847.28
2022-08-28T00:44:22.224Z,94843.81
2022-08-28T00:47:30.513Z,94844.19
2022-08-28T00:50:56.741Z,94844.84
2022-08-28T00:54:09.367Z,94845.88
2022-08-28T00:57:27.103Z,94844.53
2022-08-28T01:00:42.520Z,94844.19
2022-08-28T01:03:51.137Z,94841.13
2022-08-28T01:07:05.252Z,94844.47
2022-08-28T01:10:18.494Z,94836.44
2022-08-28T01:13:30.026Z,94840.34
2022-08-28T01:16:38.835Z,94837.22
2022-08-28T01:19:57.039Z,94838.81
2022-08-28T01:23:21.591Z,94833.09
2022-08-28T01:26:32.871Z,94837.69
2022-08-28T01:29:41.936Z,94830.78
2022-08-28T01:32:57.186Z,94831.53
2022-08-28T01:36:05.987Z,94836.16
2022-08-28T01:39:19.709Z,94841.97
2022-08-28T01:42:29.711Z,94836.50
2022-08-28T01:45:38.854Z,94836.19
2022-08-28T01:48:47.549Z,94837.75
2022-08-28T01:51:57.867Z,94836.97
2022-08-28T01:55:08.195Z,94835.84
2022-08-28T01:58:18.950Z,94840.88
2022-08-28T02:01:28.127Z,94842.94
2022-08-28T02:04:37.465Z,94836.41
2022-08-28T02:07:46.392Z,94845.19
2022-08-28T02:10:54.689Z,94837.91
2022-08-28T02:14:05.243Z,94842.09
2022-08-28T02:17:13.507Z,94838.22
2022-08-28T02:20:22.421Z,94839.34
2022-08-28T02:23:30.943Z,94834.75
2022-08-28T02:26:40.586Z,94834.34
2022-08-28T02:29:50.395Z,94836.97
2022-08-28T02:33:00.679Z,94837.31
2022-08-28T02:36:13.133Z,94830.38
2022-08-28T02:39:22.009Z,94841.13
2022-08-28T02:42:30.455Z,94836.22
2022-08-28T02:45:40.057Z,94838.53
2022-08-28T02:48:48.245Z,94833.16
2022-08-28T02:51:57.643Z,94836.97
2022-08-28T02:55:08.126Z,94834.22
2022-08-28T02:58:17.344Z,94836.44
2022-08-28T03:01:26.930Z,94832.63
2022-08-28T03:04:35.600Z,94833.50
2022-08-28T03:07:43.943Z,94835.47
2022-08-28T03:10:52.437Z,94833.22
2022-08-28T03:14:03.249Z,94830.41
2022-08-28T03:17:12.812Z,94829.28
2022-08-28T03:20:21.511Z,94833.53
2022-08-28T03:23:30.249Z,94832.84
2022-08-28T03:26:38.448Z,94826.00
2022-08-28T03:29:46.667Z,94830.19
2022-08-28T03:32:56.229Z,94833.25
2022-08-28T03:36:05.417Z,94839.06
2022-08-28T03:39:14.687Z,94841.06
2022-08-28T03:42:24.159Z,94846.47
2022-08-28T03:45:32.846Z,94845.66
2022-08-28T03:48:44.896Z,94845.25
2022-08-28T03:51:53.269Z,94849.00
2022-08-28T03:55:02.147Z,94850.56
2022-08-28T03:58:10.721Z,94849.81
2022-08-28T04:01:28.190Z,94847.13
2022-08-28T04:04:38.050Z,94849.06
2022-08-28T04:07:46.747Z,94852.16
2022-08-28T04:10:55.141Z,94850.97
2022-08-28T04:14:03.347Z,94854.47
2022-08-28T04:17:11.884Z,94852.22
2022-08-28T04:20:22.131Z,94858.81
2022-08-28T04:23:30.902Z,94857.66
2022-08-28T04:26:39.391Z,94853.81
2022-08-28T04:29:48.184Z,94855.69
2022-08-28T04:32:56.332Z,94864.50
2022-08-28T04:36:11.100Z,94863.34
2022-08-28T04:39:20.498Z,94863.03
2022-08-28T04:42:29.228Z,94862.63
2022-08-28T04:45:40.995Z,94863.47
2022-08-28T04:48:49.535Z,94860.41
2022-08-28T04:51:59.347Z,94859.56
2022-08-28T04:55:09.152Z,94863.00
2022-08-28T04:58:19.722Z,94865.72
2022-08-28T05:01:32.736Z,94868.00
2022-08-28T05:04:40.878Z,94865.72
2022-08-28T05:07:50.877Z,94867.63
2022-08-28T05:11:00.578Z,94866.91
2022-08-28T05:14:15.371Z,94866.19
2022-08-28T05:17:24.586Z,94876.19
2022-08-28T05:20:38.289Z,94878.25
2022-08-28T05:23:48.853Z,94882.47
2022-08-28T05:26:57.533Z,94882.38
2022-08-28T05:30:07.697Z,94881.34
2022-08-28T05:33:17.653Z,94882.91
2022-08-28T05:36:32.491Z,94883.34
2022-08-28T05:39:43.650Z,94891.03
2022-08-28T05:42:53.208Z,94890.75
2022-08-28T05:46:05.126Z,94891.94
2022-08-28T05:49:14.749Z,94899.28
2022-08-28T05:52:23.135Z,94893.94
2022-08-28T05:55:32.974Z,94901.63
2022-08-28T05:58:41.583Z,94898.16
2022-08-28T06:01:51.220Z,94904.34
2022-08-28T06:05:00.100Z,94903.53
2022-08-28T06:08:08.735Z,94906.22
2022-08-28T06:11:21.773Z,94906.28
2022-08-28T06:14:33.522Z,94910.47
2022-08-28T06:17:42.697Z,94897.84
2022-08-28T06:20:50.973Z,94909.44
2022-08-28T06:24:00.550Z,94910.16
2022-08-28T06:27:10.329Z,94912.47
2022-08-28T06:30:18.817Z,94912.03
2022-08-28T06:33:27.227Z,94910.50
2022-08-28T06:36:38.633Z,94914.75
2022-08-28T06:39:47.143Z,94904.38
2022-08-28T06:42:56.660Z,94908.16
2022-08-28T06:46:06.236Z,94913.22
2022-08-28T06:49:15.005Z,94913.22
2022-08-28T06:52:23.477Z,94910.22
2022-08-28T06:55:32.256Z,94917.19
2022-08-28T06:58:50.041Z,94922.97
2022-08-28T07:02:00.111Z,94922.59
2022-08-28T07:05:10.192Z,94924.91
2022-08-28T07:08:18.826Z,94927.97
2022-08-28T07:11:31.411Z,94929.53
2022-08-28T07:14:40.937Z,94936.47
2022-08-28T07:17:49.417Z,94939.16
2022-08-28T07:21:00.481Z,94935.34
2022-08-28T07:24:10.525Z,94940.38
2022-08-28T07:27:19.247Z,94945.75
2022-08-28T07:30:28.997Z,94938.81
2022-08-28T07:33:39.559Z,94944.59
2022-08-28T07:36:48.773Z,94941.09
2022-08-28T07:39:57.440Z,94941.50
2022-08-28T07:43:23.463Z,94952.22
2022-08-28T07:46:33.531Z,94947.63
2022-08-28T07:49:43.285Z,94952.63
2022-08-28T07:52:51.934Z,94949.13
2022-08-28T07:56:00.513Z,94957.25
2022-08-28T07:59:12.088Z,94960.34
2022-08-28T08:02:26.764Z,94962.22
2022-08-28T08:05:35.108Z,94965.31
2022-08-28T08:08:43.265Z,94956.88
2022-08-28T08:11:51.671Z,94956.91
2022-08-28T08:14:59.814Z,94963.84
2022-08-28T08:18:09.394Z,94969.63
2022-08-28T08:21:21.988Z,94979.56
2022-08-28T08:24:30.935Z,94973.75
2022-08-28T08:27:42.894Z,94973.75
2022-08-28T08:30:52.166Z,94969.53
2022-08-28T08:34:06.834Z,94973.00
2022-08-28T08:37:15.851Z,94982.25
2022-08-28T08:40:24.551Z,94978.03
2022-08-28T08:43:50.349Z,94982.22
2022-08-28T08:47:17.287Z,94983.31
2022-08-28T08:50:31.759Z,94982.88
2022-08-28T08:53:54.598Z,94993.66
2022-08-28T08:57:04.325Z,94990.97
2022-08-28T09:00:16.191Z,95003.00
2022-08-28T09:03:34.250Z,95003.81
2022-08-28T09:06:51.154Z,95018.31
2022-08-28T09:10:00.006Z,95024.56
2022-08-28T09:13:25.062Z,95023.38
2022-08-28T09:16:40.014Z,95027.34
2022-08-28T09:19:48.624Z,95018.59
2022-08-28T09:23:02.062Z,95026.25
2022-08-28T09:26:13.227Z,95020.44
2022-08-28T09:29:30.451Z,95030.72
2022-08-28T09:32:43.810Z,95032.66
2022-08-28T09:35:54.202Z,95033.44
2022-08-28T09:39:13.111Z,95036.63
2022-08-28T09:42:42.211Z,95035.22
2022-08-28T09:45:59.479Z,95045.69
2022-08-28T09:49:14.647Z,95050.28
2022-08-28T09:52:25.410Z,95044.59
2022-08-28T09:55:51.537Z,95037.25
2022-08-28T09:59:06.943Z,95043.88
2022-08-28T10:02:37.122Z,95049.66
2022-08-28T10:06:05.215Z,95053.50
2022-08-28T10:09:29.371Z,95052.25
2022-08-28T10:12:59.414Z,95044.97
2022-08-28T10:16:24.763Z,95050.63
2022-08-28T10:19:51.016Z,95055.22
2022-08-28T10:23:17.641Z,95058.38
2022-08-28T10:26:41.423Z,95063.38
2022-08-28T10:30:07.924Z,95059.00
2022-08-28T10:33:50.453Z,95068.63
2022-08-28T10:37:10.547Z,95065.88
2022-08-28T10:40:29.281Z,95067.47
2022-08-28T10:43:44.762Z,95068.22
2022-08-28T10:47:00.080Z,95064.44
2022-08-28T10:50:19.103Z,95066.47
2022-08-28T10:53:36.435Z,95063.41
2022-08-28T10:56:56.272Z,95061.53
2022-08-28T11:00:12.671Z,95060.81
2022-08-28T11:03:35.070Z,95063.84
2022-08-28T11:06:51.795Z,95059.25
2022-08-28T11:10:22.090Z,95065.66
2022-08-28T11:13:57.285Z,95065.28
2022-08-28T11:17:09.446Z,95066.78
2022-08-28T11:20:26.917Z,95067.97
2022-08-28T11:23:44.648Z,95077.22
2022-08-28T11:27:07.767Z,95068.50
2022-08-28T11:30:35.598Z,95071.47
2022-08-28T11:33:47.776Z,95073.09
2022-08-28T11:37:03.805Z,95083.09
2022-08-28T11:40:20.178Z,95071.66
2022-08-28T11:43:41.621Z,95072.44
2022-08-28T11:46:52.658Z,95073.59
2022-08-28T11:50:13.602Z,95085.09
2022-08-28T11:53:52.940Z,95085.50
2022-08-28T11:57:15.012Z,95085.59
2022-08-28T12:00:34.546Z,95089.13
2022-08-28T12:03:54.971Z,95087.63
2022-08-28T12:07:23.333Z,95078.78
2022-08-28T12:10:58.405Z,95086.94
2022-08-28T12:14:08.123Z,95088.88
2022-08-28T12:17:31.224Z,95073.88
2022-08-28T12:21:03.542Z,95084.28
2022-08-28T12:24:22.900Z,95083.13
2022-08-28T12:27:33.640Z,95083.16
2022-08-28T12:30:52.757Z,95084.69
2022-08-28T12:34:15.177Z,95085.84
2022-08-28T12:37:39.380Z,95088.56
2022-08-28T12:41:31.300Z,95096.25
2022-08-28T12:44:41.129Z,95097.41
2022-08-28T12:47:54.615Z,95091.63
2022-08-28T12:58:38.896Z,95097.78
2022-08-28T13:01:49.310Z,95100.06
2022-08-28T13:05:03.779Z,95100.84
2022-08-28T13:08:14.584Z,95101.91
2022-08-28T13:11:24.417Z,95094.94
2022-08-28T13:14:49.837Z,95094.84
2022-08-28T13:18:05.118Z,95101.13
2022-08-28T13:21:39.393Z,95094.09
2022-08-28T13:24:48.988Z,95094.50
2022-08-28T13:28:00.429Z,95093.03
2022-08-28T13:31:33.267Z,95092.81
2022-08-28T13:34:45.522Z,95093.28
2022-08-28T13:37:59.794Z,95080.09
2022-08-28T13:41:12.239Z,95082.31
2022-08-28T13:44:50.541Z,95080.75
2022-08-28T13:47:59.005Z,95077.09
2022-08-28T13:51:16.385Z,95089.00
2022-08-28T13:54:29.962Z,95072.41
2022-08-28T13:57:40.124Z,95084.97
2022-08-28T14:00:51.737Z,95080.44
2022-08-28T14:03:59.098Z,95077.59
2022-08-28T14:07:09.238Z,95076.06
2022-08-28T14:10:17.834Z,95074.84
2022-08-28T14:13:27.742Z,95077.53
2022-08-28T14:16:39.721Z,95084.91
2022-08-28T14:19:48.420Z,95086.53
2022-08-28T14:22:58.111Z,95086.75
2022-08-28T14:26:07.348Z,95089.59
2022-08-28T14:29:17.790Z,95087.34
2022-08-28T14:32:26.206Z,95088.25
2022-08-28T14:35:39.546Z,95090.84
2022-08-28T14:38:53.688Z,95091.53
2022-08-28T14:42:02.835Z,95085.75
2022-08-28T14:45:13.024Z,95088.34
2022-08-28T14:48:21.277Z,95089.34
2022-08-28T14:51:32.318Z,95079.91
2022-08-28T14:54:42.108Z,95082.44
2022-08-28T14:57:51.778Z,95088.38
2022-08-28T15:01:00.090Z,95079.69
2022-08-28T15:04:11.454Z,95073.50
2022-08-28T15:07:21.245Z,95080.66
2022-08-28T15:10:30.942Z,95077.34
2022-08-28T15:13:39.442Z,95082.34
2022-08-28T15:16:50.167Z,95078.72
2022-08-28T15:20:00.406Z,95074.44
2022-08-28T15:23:09.370Z,95085.00
2022-08-28T15:26:20.008Z,95081.78
2022-08-28T15:29:29.896Z,95086.88
2022-08-28T15:32:38.174Z,95089.56
2022-08-28T15:35:46.440Z,95091.50
2022-08-28T15:39:12.478Z,95089.09
2022-08-28T15:42:23.213Z,95084.34
2022-08-28T15:45:31.596Z,95082.53
2022-08-28T15:48:40.245Z,95081.06
2022-08-28T15:51:50.849Z,95080.66
2022-08-28T15:54:59.235Z,95065.97
2022-08-28T15:58:13.672Z,95070.28
2022-08-28T16:01:23.370Z,95068.63
2022-08-28T16:04:33.345Z,95075.13
2022-08-28T16:07:41.716Z,95074.00
2022-08-28T16:10:50.990Z,95067.84
2022-08-28T16:14:00.976Z,95074.09
2022-08-28T16:17:11.050Z,95065.09
2022-08-28T16:20:19.851Z,95065.63
2022-08-28T16:23:28.088Z,95064.78
2022-08-28T16:26:36.834Z,95063.06
2022-08-28T16:29:46.564Z,95066.56
2022-08-28T16:32:57.875Z,95071.38
2022-08-28T16:36:08.937Z,95062.31
2022-08-28T16:39:17.522Z,95058.25
2022-08-28T16:42:29.675Z,95060.03
2022-08-28T16:45:44.825Z,95053.84
2022-08-28T16:48:54.322Z,95059.78
2022-08-28T16:52:03.033Z,95055.75
2022-08-28T16:55:13.159Z,95064.75
2022-08-28T16:58:21.583Z,95067.38
2022-08-28T17:01:31.608Z,95069.66
2022-08-28T17:04:40.438Z,95073.56
2022-08-28T17:07:49.544Z,95072.81
2022-08-28T17:10:59.137Z,95077.50
2022-08-28T17:14:07.957Z,95078.84
2022-08-28T17:17:17.597Z,95073.53
2022-08-28T17:20:43.696Z,95075.63
2022-08-28T17:23:53.058Z,95086.09
2022-08-28T17:27:05.471Z,95076.94
2022-08-28T17:30:18.117Z,95090.84
2022-08-28T17:33:28.183Z,95079.72
2022-08-28T17:36:39.010Z,95093.94
2022-08-28T17:39:47.702Z,95094.34
2022-08-28T17:42:56.906Z,95097.00
2022-08-28T17:46:07.637Z,95109.31
2022-08-28T17:49:18.413Z,95105.06
2022-08-28T17:52:27.673Z,95108.38
2022-08-28T17:55:36.871Z,95110.31
2022-08-28T17:58:45.602Z,95107.91
2022-08-28T18:01:54.843Z,95118.25
2022-08-28T18:05:05.290Z,95111.56
2022-08-28T18:08:14.338Z,95119.09
2022-08-28T18:11:23.552Z,95122.09
2022-08-28T18:14:32.249Z,95120.13
2022-08-28T18:17:43.307Z,95118.97
2022-08-28T18:20:54.028Z,95117.25
2022-08-28T18:24:02.693Z,95124.47
2022-08-28T18:27:11.979Z,95127.41
2022-08-28T18:30:20.708Z,95121.72
2022-08-28T18:33:29.831Z,95132.84
2022-08-28T18:36:41.637Z,95143.03
2022-08-28T18:39:51.730Z,95140.69
2022-08-28T18:43:03.510Z,95147.53
2022-08-28T18:46:14.298Z,95150.41
2022-08-28T18:49:22.886Z,95155.75
2022-08-28T18:52:32.713Z,95158.03
2022-08-28T18:55:41.390Z,95158.41
2022-08-28T18:58:51.403Z,95163.66
2022-08-28T19:02:00.631Z,95169.81
2022-08-28T19:05:10.910Z,95171.97
2022-08-28T19:08:20.768Z,95174.56
2022-08-28T19:11:31.346Z,95176.84
2022-08-28T19:14:39.971Z,95171.41
2022-08-28T19:17:48.700Z,95175.88
2022-08-28T19:21:05.851Z,95175.03
2022-08-28T19:24:17.878Z,95176.91
2022-08-28T19:27:26.790Z,95174.56
2022-08-28T19:30:39.022Z,95178.66
2022-08-28T19:33:51.746Z,95180.03
2022-08-28T19:37:01.512Z,95180.13
2022-08-28T19:40:13.949Z,95176.47
2022-08-28T19:43:22.656Z,95179.75
2022-08-28T19:46:31.551Z,95192.66
2022-08-28T19:49:43.839Z,95189.25
2022-08-28T19:52:52.342Z,95196.47
2022-08-28T19:56:02.094Z,95189.94
2022-08-28T19:59:11.027Z,95190.69
2022-08-28T20:02:20.663Z,95195.22
2022-08-28T20:05:29.452Z,95203.09
2022-08-28T20:08:38.095Z,95203.53
2022-08-28T20:11:49.739Z,95204.75
2022-08-28T20:15:03.132Z,95208.38
2022-08-28T20:18:13.734Z,95203.69
2022-08-28T20:21:36.705Z,95206.94
2022-08-28T20:24:47.412Z,95207.06
2022-08-28T20:28:01.678Z,95194.31
2022-08-28T20:31:14.341Z,95191.94
2022-08-28T20:34:23.476Z,95197.72
2022-08-28T20:37:34.161Z,95195.31
2022-08-28T20:40:53.526Z,95186.00
2022-08-28T20:44:10.475Z,95184.03
2022-08-28T20:47:20.338Z,95190.06
2022-08-28T20:50:32.302Z,95192.00
2022-08-28T20:53:41.730Z,95185.16
2022-08-28T20:56:52.672Z,95182.75
2022-08-28T21:00:05.613Z,95191.09
2022-08-28T21:03:14.889Z,95197.16
2022-08-28T21:06:23.417Z,95206.38
2022-08-28T21:09:41.043Z,95203.16
2022-08-28T21:13:00.367Z,95203.50
2022-08-28T21:16:10.140Z,95209.19
2022-08-28T21:19:18.867Z,95215.19
2022-08-28T21:22:27.469Z,95208.84
2022-08-28T21:25:35.902Z,95198.34
2022-08-28T21:28:48.372Z,95202.41
2022-08-28T21:31:58.210Z,95203.53
2022-08-28T21:35:10.994Z,95208.75
2022-08-28T21:38:19.631Z,95212.34
2022-08-28T21:41:28.100Z,95213.81
2022-08-28T21:44:38.310Z,95220.72
2022-08-28T21:47:48.036Z,95218.63
2022-08-28T21:50:56.892Z,95220.22
2022-08-28T21:54:06.299Z,95221.16
2022-08-28T21:57:14.811Z,95225.44
2022-08-28T22:00:24.770Z,95230.34
2022-08-28T22:03:34.845Z,95224.22
2022-08-28T22:06:43.241Z,95235.38
2022-08-28T22:09:51.898Z,95224.22
2022-08-28T22:13:00.591Z,95226.50
2022-08-28T22:16:09.440Z,95216.56
2022-08-28T22:19:19.091Z,95219.84
2022-08-28T22:22:59.270Z,95225.28
2022-08-28T22:26:12.359Z,95219.13
2022-08-28T22:29:20.819Z,95226.25
2022-08-28T22:32:29.304Z,95228.53
2022-08-28T22:35:39.724Z,95228.34
2022-08-28T22:38:53.316Z,95221.16
2022-08-28T22:42:02.139Z,95219.06
2022-08-28T22:45:11.533Z,95215.56
2022-08-28T22:48:20.305Z,95220.91
2022-08-28T22:51:30.105Z,95224.53
2022-08-28T22:54:38.921Z,95225.22
2022-08-28T22:57:47.744Z,95228.25
2022-08-28T23:00:56.186Z,95226.97
2022-08-28T23:04:05.522Z,95228.16
2022-08-28T23:07:17.557Z,95226.53
2022-08-28T23:10:42.383Z,95218.66
2022-08-28T23:13:54.360Z,95216.31
2022-08-28T23:17:04.587Z,95219.84
2022-08-28T23:20:24.777Z,95204.75
2022-08-28T23:23:35.447Z,95215.69
2022-08-28T23:26:44.502Z,95222.25
2022-08-28T23:30:16.980Z,95221.31
2022-08-28T23:33:25.121Z,95226.66
2022-08-28T23:36:35.892Z,95218.19
2022-08-28T23:39:46.074Z,95217.69
2022-08-28T23:42:56.601Z,95216.13
2022-08-28T23:46:05.778Z,95213.28
2022-08-28T23:49:15.282Z,95214.25
2022-08-28T23:52:26.227Z,95213.41
2022-08-28T23:55:35.917Z,95220.44
2022-08-28T23:58:45.097Z,95219.13
